createdAt,value
2023-02-08T00:00:37.282Z,19.85
2023-02-08T00:03:12.451Z,17.80
2023-02-08T00:05:46.248Z,20.05
2023-02-08T00:08:19.808Z,20.67
2023-02-08T00:10:53.370Z,19.33
2023-02-08T00:13:27.306Z,18.25
2023-02-08T00:16:01.122Z,20.15
2023-02-08T00:18:36.101Z,21.73
2023-02-08T00:21:11.425Z,20.38
2023-02-08T00:23:45.277Z,20.95
2023-02-08T00:26:18.988Z,22.92
2023-02-08T00:28:52.725Z,22.10
2023-02-08T00:31:26.254Z,22.48
2023-02-08T00:34:01.302Z,22.13
2023-02-08T00:36:34.822Z,23.95
2023-02-08T00:39:08.327Z,23.40
2023-02-08T00:41:41.947Z,24.75
2023-02-08T00:44:15.508Z,21.83
2023-02-08T00:46:49.081Z,21.52
2023-02-08T00:49:25.668Z,23.20
2023-02-08T00:51:59.164Z,23.42
2023-02-08T00:54:32.733Z,23.73
2023-02-08T00:57:06.229Z,23.90
2023-02-08T00:59:39.715Z,22.05
2023-02-08T01:02:13.581Z,23.33
2023-02-08T01:04:48.685Z,28.60
2023-02-08T01:07:22.239Z,23.63
2023-02-08T01:09:55.695Z,26.30
2023-02-08T01:12:29.274Z,23.52
2023-02-08T01:15:02.793Z,26.33
2023-02-08T01:17:37.013Z,25.92
2023-02-08T01:20:13.208Z,25.08
2023-02-08T01:22:46.737Z,21.90
2023-02-08T01:25:20.324Z,25.38
2023-02-08T01:27:55.652Z,22.10
2023-02-08T01:30:29.275Z,23.60
2023-02-08T01:33:02.804Z,22.48
2023-02-08T01:35:37.742Z,22.23
2023-02-08T01:38:11.341Z,21.05
2023-02-08T01:40:45.010Z,20.48
2023-02-08T01:43:23.529Z,18.98
2023-02-08T01:45:57.424Z,21.33
2023-02-08T01:48:35.434Z,20.85
2023-02-08T01:51:15.180Z,21.92
2023-02-08T01:53:51.924Z,20.25
2023-02-08T01:56:30.797Z,19.58
2023-02-08T01:59:07.936Z,18.13
2023-02-08T02:01:43.357Z,19.92
2023-02-08T02:04:17.544Z,17.70
2023-02-08T02:06:55.394Z,18.25
2023-02-08T02:09:37.842Z,16.75
2023-02-08T02:14:46.064Z,20.10
2023-02-08T02:17:21.062Z,18.40
2023-02-08T02:20:04.712Z,19.77
2023-02-08T02:23:19.857Z,20.52
2023-02-08T02:26:33.600Z,20.23
2023-02-08T02:29:40.868Z,18.63
2023-02-08T02:32:25.646Z,21.33
2023-02-08T02:35:05.193Z,20.98
2023-02-08T02:37:52.132Z,18.92
2023-02-08T02:40:35.714Z,19.77
2023-02-08T02:43:32.792Z,18.58
2023-02-08T02:46:15.191Z,18.25
2023-02-08T02:51:29.308Z,18.70
2023-02-08T02:54:07.537Z,17.73
2023-02-08T02:56:43.708Z,18.98
2023-02-08T02:59:19.261Z,18.83
2023-02-08T03:01:56.059Z,17.13
2023-02-08T03:04:51.043Z,19.70
2023-02-08T03:07:50.140Z,17.95
2023-02-08T03:10:34.650Z,19.27
2023-02-08T03:13:18.156Z,21.90
2023-02-08T03:16:02.254Z,22.40
2023-02-08T03:18:42.830Z,21.77
2023-02-08T03:21:24.358Z,20.23
2023-02-08T03:24:03.509Z,14.80
2023-02-08T03:26:40.793Z,14.35
2023-02-08T03:29:28.460Z,16.73
2023-02-08T03:32:05.739Z,16.08
2023-02-08T03:34:47.207Z,14.60
2023-02-08T03:37:25.034Z,14.80
2023-02-08T03:40:02.935Z,16.20
2023-02-08T03:42:38.136Z,16.60
2023-02-08T03:45:17.147Z,15.60
2023-02-08T03:47:53.066Z,16.80
2023-02-08T03:50:28.384Z,16.35
2023-02-08T03:53:05.119Z,17.17
2023-02-08T04:08:34.418Z,19.30
2023-02-08T04:11:08.066Z,15.38
2023-02-08T04:13:41.571Z,16.08
2023-02-08T04:16:15.399Z,15.88
2023-02-08T04:18:48.885Z,16.15
2023-02-08T04:21:22.441Z,15.20
2023-02-08T04:23:57.332Z,15.27
2023-02-08T04:26:30.845Z,15.50
2023-02-08T04:29:04.331Z,14.40
2023-02-08T04:31:37.989Z,14.00
2023-02-08T04:34:11.649Z,14.15
2023-02-08T04:36:45.184Z,15.95
2023-02-08T04:39:20.181Z,14.60
2023-02-08T04:41:53.786Z,17.50
2023-02-08T04:44:27.328Z,14.63
2023-02-08T04:47:01.064Z,14.07
2023-02-08T04:49:34.716Z,16.85
2023-02-08T04:52:08.241Z,15.85
2023-02-08T04:54:43.160Z,15.25
2023-02-08T04:57:16.699Z,16.45
2023-02-08T04:59:50.205Z,24.00
2023-02-08T05:02:23.715Z,31.98
2023-02-08T05:04:57.289Z,19.80
2023-02-08T05:07:30.840Z,20.50
2023-02-08T05:10:06.115Z,22.25
2023-02-08T05:12:39.724Z,19.27
2023-02-08T05:15:13.462Z,21.05
2023-02-08T05:17:47.039Z,20.60
2023-02-08T05:20:21.698Z,19.88
2023-02-08T05:22:55.210Z,22.38
2023-02-08T05:25:30.157Z,23.55
2023-02-08T05:28:04.402Z,28.98
2023-02-08T05:30:40.195Z,28.05
2023-02-08T05:33:13.911Z,27.48
2023-02-08T05:35:47.527Z,23.15
2023-02-08T05:38:21.127Z,24.10
2023-02-08T05:40:56.070Z,23.73
2023-02-08T05:43:29.696Z,23.00
2023-02-08T05:46:03.182Z,24.77
2023-02-08T05:48:36.739Z,20.95
2023-02-08T05:51:10.604Z,18.48
2023-02-08T05:53:45.478Z,19.08
2023-02-08T05:56:20.360Z,19.27
2023-02-08T05:58:54.370Z,22.25
2023-02-08T06:01:32.490Z,20.38
2023-02-08T06:04:06.197Z,22.38
2023-02-08T06:06:39.737Z,22.20
2023-02-08T06:09:13.328Z,20.70
2023-02-08T06:11:48.223Z,21.15
2023-02-08T06:14:22.063Z,19.98
2023-02-08T06:16:55.556Z,19.25
2023-02-08T06:19:29.170Z,22.25
2023-02-08T06:22:02.716Z,20.38
2023-02-08T06:24:36.339Z,17.40
2023-02-08T06:27:11.472Z,18.30
2023-02-08T06:29:45.028Z,18.85
2023-02-08T06:32:18.633Z,19.02
2023-02-08T06:34:52.445Z,18.77
2023-02-08T06:37:26.033Z,21.08
2023-02-08T06:40:00.695Z,21.13
2023-02-08T06:42:35.662Z,23.70
2023-02-08T06:45:13.350Z,21.52
2023-02-08T06:47:47.187Z,21.02
2023-02-08T06:50:22.097Z,21.88
2023-02-08T06:52:57.651Z,20.50
2023-02-08T06:55:31.195Z,21.25
2023-02-08T06:58:06.126Z,19.05
2023-02-08T07:00:40.413Z,18.95
2023-02-08T07:03:15.128Z,18.88
2023-02-08T07:06:03.665Z,17.65
2023-02-08T07:08:37.508Z,19.42
2023-02-08T07:11:12.320Z,23.33
2023-02-08T07:13:49.703Z,28.70
2023-02-08T07:16:23.389Z,31.40
2023-02-08T07:18:56.897Z,26.45
2023-02-08T07:21:30.401Z,25.95
2023-02-08T07:24:03.956Z,25.73
2023-02-08T07:26:37.475Z,21.67
2023-02-08T07:29:12.346Z,18.52
2023-02-08T07:31:45.880Z,16.73
2023-02-08T07:34:21.969Z,17.85
2023-02-08T07:36:55.701Z,16.58
2023-02-08T07:39:31.426Z,20.27
2023-02-08T07:42:06.310Z,19.83
2023-02-08T07:44:49.225Z,17.63
2023-02-08T07:47:22.704Z,19.20
2023-02-08T07:49:56.191Z,18.52
2023-02-08T07:52:30.542Z,17.90
2023-02-08T07:55:04.146Z,16.75
2023-02-08T07:57:37.632Z,18.80
2023-02-08T08:00:13.916Z,18.30
2023-02-08T08:02:47.425Z,16.98
2023-02-08T08:05:21.736Z,18.63
2023-02-08T08:07:55.231Z,15.65
2023-02-08T08:10:28.801Z,15.25
2023-02-08T08:13:02.403Z,15.27
2023-02-08T08:15:37.305Z,15.70
2023-02-08T08:18:10.935Z,15.98
2023-02-08T08:20:44.511Z,13.75
2023-02-08T08:23:19.597Z,13.02
2023-02-08T08:25:53.123Z,13.40
2023-02-08T08:28:27.806Z,13.77
2023-02-08T08:31:03.098Z,12.15
2023-02-08T08:33:36.762Z,14.18
2023-02-08T08:36:10.719Z,14.45
2023-02-08T08:38:44.375Z,19.10
2023-02-08T08:41:19.057Z,20.70
2023-02-08T08:43:53.025Z,18.40
2023-02-08T08:46:28.024Z,13.02
2023-02-08T08:49:01.574Z,13.20
2023-02-08T08:51:35.600Z,9.13
2023-02-08T08:54:09.582Z,6.05
2023-02-08T08:56:43.195Z,6.45
2023-02-08T08:59:16.724Z,6.03
2023-02-08T09:01:51.752Z,5.78
2023-02-08T09:04:25.360Z,5.97
2023-02-08T09:06:58.854Z,5.53
2023-02-08T09:09:32.351Z,5.72
2023-02-08T09:12:06.327Z,5.07
2023-02-08T09:14:39.822Z,6.45
2023-02-08T09:17:14.892Z,5.93
2023-02-08T09:19:48.457Z,6.72
2023-02-08T09:22:22.067Z,7.57
2023-02-08T09:24:56.004Z,7.32
2023-02-08T09:27:30.170Z,7.40
2023-02-08T09:30:04.125Z,6.10
2023-02-08T09:32:40.152Z,3.85
2023-02-08T09:35:15.458Z,4.93
2023-02-08T09:37:54.491Z,4.88
2023-02-08T09:40:33.204Z,3.85
2023-02-08T09:43:14.260Z,3.60
2023-02-08T09:45:59.834Z,3.25
2023-02-08T09:48:37.782Z,3.28
2023-02-08T09:51:23.890Z,3.13
2023-02-08T09:54:01.296Z,4.03
2023-02-08T09:56:40.308Z,3.38
2023-02-08T09:59:17.273Z,3.75
2023-02-08T10:01:52.796Z,3.72
2023-02-08T10:04:35.860Z,3.95
2023-02-08T10:07:12.176Z,3.70
2023-02-08T10:09:45.684Z,2.95
2023-02-08T10:12:27.270Z,3.70
2023-02-08T10:15:11.751Z,4.25
2023-02-08T10:18:11.203Z,4.07
2023-02-08T10:21:11.474Z,4.32
2023-02-08T10:24:08.978Z,4.35
2023-02-08T10:26:47.464Z,3.28
2023-02-08T10:29:49.774Z,3.28
2023-02-08T10:32:43.805Z,2.70
2023-02-08T10:35:24.473Z,2.85
2023-02-08T10:38:00.352Z,2.67
2023-02-08T10:40:38.872Z,3.60
2023-02-08T10:43:22.413Z,2.83
2023-02-08T10:46:03.451Z,2.33
2023-02-08T10:48:47.638Z,3.30
2023-02-08T10:51:22.522Z,2.97
2023-02-08T10:53:58.225Z,2.10
2023-02-08T10:56:52.617Z,2.58
2023-02-08T10:59:30.134Z,2.42
2023-02-08T11:02:04.009Z,2.63
2023-02-08T11:05:01.575Z,2.97
2023-02-08T11:07:36.870Z,2.50
2023-02-08T11:10:25.203Z,2.17
2023-02-08T11:13:01.048Z,4.07
2023-02-08T11:15:45.006Z,2.70
2023-02-08T11:18:23.877Z,2.33
2023-02-08T11:21:00.008Z,1.80
2023-02-08T11:23:35.622Z,2.20
2023-02-08T11:26:20.014Z,1.77
2023-02-08T11:29:06.048Z,2.03
2023-02-08T11:31:40.868Z,2.72
2023-02-08T11:34:14.431Z,2.20
2023-02-08T11:36:48.853Z,2.17
2023-02-08T11:39:27.056Z,2.15
2023-02-08T11:42:03.547Z,1.98
2023-02-08T11:44:43.121Z,1.98
2023-02-08T11:47:20.520Z,1.48
2023-02-08T11:49:57.118Z,1.42
2023-02-08T11:52:35.463Z,2.30
2023-02-08T11:55:25.687Z,1.75
2023-02-08T11:58:03.202Z,2.50
2023-02-08T12:00:38.725Z,1.60
2023-02-08T12:03:18.486Z,2.00
2023-02-08T12:06:00.723Z,2.05
2023-02-08T12:08:41.891Z,1.60
2023-02-08T12:11:27.968Z,2.22
2023-02-08T12:14:17.770Z,2.00
2023-02-08T12:17:12.434Z,1.40
2023-02-08T12:20:23.296Z,2.20
2023-02-08T12:23:05.671Z,2.55
2023-02-08T12:25:46.877Z,2.40
2023-02-08T12:28:38.933Z,2.05
2023-02-08T12:31:22.552Z,2.05
2023-02-08T12:34:06.718Z,1.83
2023-02-08T12:37:13.073Z,2.03
2023-02-08T12:40:11.121Z,1.83
2023-02-08T12:43:07.778Z,2.15
2023-02-08T12:46:11.252Z,2.08
2023-02-08T12:49:04.318Z,1.92
2023-02-08T12:51:46.788Z,1.90
2023-02-08T12:54:31.584Z,2.20
2023-02-08T12:57:06.777Z,2.03
2023-02-08T12:59:44.913Z,2.28
2023-02-08T13:02:22.582Z,2.40
2023-02-08T13:05:02.198Z,2.28
2023-02-08T13:07:42.346Z,3.10
2023-02-08T13:10:26.734Z,2.45
2023-02-08T13:13:04.807Z,3.40
2023-02-08T13:15:41.439Z,2.15
2023-02-08T13:18:20.006Z,2.45
2023-02-08T13:20:58.070Z,2.13
2023-02-08T13:23:50.547Z,2.42
2023-02-08T13:26:29.160Z,2.58
2023-02-08T13:29:04.165Z,3.67
2023-02-08T13:31:42.292Z,2.50
2023-02-08T13:34:19.664Z,1.60
2023-02-08T13:36:59.702Z,2.08
2023-02-08T13:39:36.900Z,2.15
2023-02-08T13:42:22.397Z,2.75
2023-02-08T13:44:58.305Z,2.75
2023-02-08T13:47:34.210Z,2.20
2023-02-08T13:50:49.033Z,2.55
2023-02-08T13:54:03.923Z,3.20
2023-02-08T13:56:43.238Z,2.25
2023-02-08T13:59:36.312Z,3.05
2023-02-08T14:05:31.284Z,1.98
2023-02-08T14:08:08.951Z,1.83
2023-02-08T14:10:46.562Z,2.08
2023-02-08T14:13:28.870Z,2.10
2023-02-08T14:16:27.551Z,2.03
2023-02-08T14:19:02.800Z,2.22
2023-02-08T14:21:39.535Z,2.70
2023-02-08T14:24:24.588Z,1.83
2023-02-08T14:27:09.672Z,2.47
2023-02-08T14:29:43.532Z,2.42
2023-02-08T14:32:25.150Z,2.75
2023-02-08T14:35:05.594Z,2.85
2023-02-08T14:37:39.385Z,2.40
2023-02-08T14:40:50.341Z,5.78
2023-02-08T14:43:34.978Z,11.95
2023-02-08T14:46:45.507Z,10.73
2023-02-08T14:49:20.247Z,7.32
2023-02-08T14:51:59.653Z,10.90
2023-02-08T14:54:37.342Z,6.50
2023-02-08T14:57:28.049Z,7.72
2023-02-08T15:00:08.606Z,8.25
2023-02-08T15:02:46.322Z,5.30
2023-02-08T15:05:24.429Z,6.30
2023-02-08T15:07:59.890Z,6.82
2023-02-08T15:10:35.199Z,8.10
2023-02-08T15:13:19.544Z,8.18
2023-02-08T15:15:58.442Z,8.30
2023-02-08T15:18:34.287Z,9.60
2023-02-08T15:21:16.600Z,11.02
2023-02-08T15:24:00.868Z,10.27
2023-02-08T15:26:34.823Z,8.93
2023-02-08T15:29:24.638Z,7.20
2023-02-08T15:32:01.934Z,6.57
2023-02-08T15:34:36.081Z,6.13
2023-02-08T15:37:19.856Z,6.95
2023-02-08T15:39:56.179Z,6.65
2023-02-08T15:42:33.283Z,4.85
2023-02-08T15:45:24.518Z,5.75
2023-02-08T15:48:00.592Z,7.35
2023-02-08T15:50:34.939Z,6.47
2023-02-08T15:53:14.111Z,5.90
2023-02-08T15:55:51.265Z,4.57
2023-02-08T15:58:30.070Z,5.35
2023-02-08T16:01:06.527Z,6.15
2023-02-08T16:03:41.562Z,5.43
2023-02-08T16:06:15.144Z,6.40
2023-02-08T16:08:52.579Z,7.75
2023-02-08T16:11:29.498Z,7.60
2023-02-08T16:14:05.212Z,6.63
2023-02-08T16:16:41.906Z,7.60
2023-02-08T16:19:30.747Z,7.75
2023-02-08T16:22:25.599Z,8.35
2023-02-08T16:25:23.676Z,8.95
2023-02-08T16:27:57.269Z,8.55
2023-02-08T16:30:30.997Z,10.50
2023-02-08T16:33:09.139Z,10.05
2023-02-08T16:35:44.258Z,12.10
2023-02-08T16:38:22.588Z,15.10
2023-02-08T16:40:59.185Z,17.55
2023-02-08T16:43:35.172Z,16.10
2023-02-08T16:46:26.863Z,14.00
2023-02-08T16:49:00.403Z,16.25
2023-02-08T16:51:35.832Z,17.23
2023-02-08T16:54:12.641Z,21.48
2023-02-08T16:56:47.655Z,15.00
2023-02-08T16:59:21.398Z,17.25
2023-02-08T17:01:56.484Z,18.63
2023-02-08T17:04:32.115Z,28.50
2023-02-08T17:07:07.403Z,17.40
2023-02-08T17:09:42.359Z,20.25
2023-02-08T17:12:22.497Z,18.08
2023-02-08T17:14:56.675Z,27.45
2023-02-08T17:17:30.151Z,31.45
2023-02-08T17:20:03.635Z,28.30
2023-02-08T17:22:38.550Z,25.20
2023-02-08T17:25:15.624Z,26.23
2023-02-08T17:27:53.151Z,23.85
2023-02-08T17:30:28.659Z,26.63
2023-02-08T17:33:03.921Z,25.98
2023-02-08T17:35:38.298Z,31.60
2023-02-08T17:38:13.945Z,28.05
2023-02-08T17:40:47.586Z,28.73
2023-02-08T17:43:23.219Z,27.52
2023-02-08T17:45:56.701Z,21.42
2023-02-08T17:48:30.363Z,23.80
2023-02-08T17:51:08.572Z,26.33
2023-02-08T17:53:44.026Z,28.52
2023-02-08T17:56:20.508Z,29.73
2023-02-08T17:58:55.397Z,23.15
2023-02-08T18:01:29.187Z,38.15
2023-02-08T18:04:03.087Z,27.98
2023-02-08T18:06:36.744Z,30.98
2023-02-08T18:09:11.657Z,35.35
2023-02-08T18:11:45.210Z,34.80
2023-02-08T18:14:20.419Z,31.95
2023-02-08T18:16:53.965Z,37.55
2023-02-08T18:19:27.503Z,41.50
2023-02-08T18:22:03.777Z,38.58
2023-02-08T18:24:38.793Z,37.53
2023-02-08T18:27:12.321Z,31.13
2023-02-08T18:29:45.835Z,33.88
2023-02-08T18:32:20.380Z,31.65
2023-02-08T18:34:53.943Z,27.52
2023-02-08T18:37:27.505Z,53.88
2023-02-08T18:40:02.794Z,35.03
2023-02-08T18:42:36.759Z,35.22
2023-02-08T18:45:11.186Z,39.17
2023-02-08T18:47:44.672Z,35.03
2023-02-08T18:50:18.280Z,36.33
2023-02-08T18:52:51.782Z,40.90
2023-02-08T18:55:26.782Z,40.13
2023-02-08T18:58:00.315Z,50.40
2023-02-08T19:00:34.012Z,57.88
2023-02-08T19:03:08.925Z,68.75
2023-02-08T19:05:42.823Z,60.58
2023-02-08T19:08:17.572Z,66.90
2023-02-08T19:10:52.635Z,64.32
2023-02-08T19:13:26.303Z,60.78
2023-02-08T19:16:00.092Z,58.95
2023-02-08T19:18:33.756Z,61.05
2023-02-08T19:21:09.386Z,51.80
2023-02-08T19:23:43.127Z,46.30
2023-02-08T19:26:21.644Z,39.05
2023-02-08T19:28:57.591Z,61.58
2023-02-08T19:31:32.217Z,42.42
2023-02-08T19:34:06.514Z,38.22
2023-02-08T19:36:44.146Z,36.15
2023-02-08T19:39:20.430Z,38.00
2023-02-08T19:41:58.754Z,39.65
2023-02-08T19:44:32.865Z,36.53
2023-02-08T19:47:06.505Z,34.00
2023-02-08T19:49:40.184Z,33.42
2023-02-08T19:52:16.169Z,32.28
2023-02-08T19:54:50.081Z,32.90
2023-02-08T19:57:25.790Z,32.78
2023-02-08T19:59:59.530Z,30.80
2023-02-08T20:02:33.340Z,34.47
2023-02-08T20:05:07.719Z,36.67
2023-02-08T20:07:41.370Z,35.63
2023-02-08T20:10:15.093Z,30.40
2023-02-08T20:12:50.089Z,45.60
2023-02-08T20:15:23.675Z,65.10
2023-02-08T20:17:57.893Z,42.58
2023-02-08T20:20:31.627Z,34.97
2023-02-08T20:23:14.188Z,35.60
2023-02-08T20:25:51.114Z,35.35
2023-02-08T20:28:26.192Z,39.40
2023-02-08T20:31:00.111Z,40.33
2023-02-08T20:33:33.966Z,40.97
2023-02-08T20:36:09.894Z,43.08
2023-02-08T20:38:43.920Z,61.00
2023-02-08T20:41:18.559Z,52.38
2023-02-08T20:43:54.754Z,51.25
2023-02-08T20:46:31.292Z,50.30
2023-02-08T20:49:06.650Z,39.55
2023-02-08T20:51:40.325Z,40.22
2023-02-08T20:54:13.919Z,37.75
2023-02-08T20:56:47.582Z,44.30
2023-02-08T20:59:22.897Z,54.03
2023-02-08T21:01:57.557Z,44.20
2023-02-08T21:04:31.192Z,45.03
2023-02-08T21:07:04.972Z,39.78
2023-02-08T21:09:38.927Z,38.53
2023-02-08T21:12:13.129Z,38.50
2023-02-08T21:14:48.550Z,39.78
2023-02-08T21:17:22.373Z,37.80
2023-02-08T21:19:56.014Z,38.53
2023-02-08T21:22:29.779Z,43.55
2023-02-08T21:25:03.411Z,46.53
2023-02-08T21:27:37.054Z,40.85
2023-02-08T21:30:13.154Z,39.85
2023-02-08T21:32:46.817Z,42.13
2023-02-08T21:35:20.556Z,43.10
2023-02-08T21:37:54.270Z,43.53
2023-02-08T21:40:27.877Z,39.72
2023-02-08T21:43:01.393Z,41.90
2023-02-08T21:45:36.434Z,38.28
2023-02-08T21:48:10.118Z,35.13
2023-02-08T21:51:01.277Z,37.55
2023-02-08T21:53:52.512Z,40.15
2023-02-08T21:56:26.097Z,46.70
2023-02-08T21:58:59.874Z,49.88
2023-02-08T22:01:35.077Z,54.22
2023-02-08T22:04:08.695Z,50.03
2023-02-08T22:06:50.790Z,45.58
2023-02-08T22:11:57.883Z,48.97
2023-02-08T22:14:31.474Z,70.78
2023-02-08T22:17:06.686Z,52.60
2023-02-08T22:19:41.035Z,63.58
2023-02-08T22:22:14.873Z,62.90
2023-02-08T22:24:48.437Z,58.80
2023-02-08T22:27:21.986Z,60.17
2023-02-08T22:29:55.525Z,67.43
2023-02-08T22:32:30.494Z,66.10
2023-02-08T22:35:04.053Z,69.15
2023-02-08T22:37:37.974Z,65.20
2023-02-08T22:40:12.898Z,74.68
2023-02-08T22:42:46.487Z,70.43
2023-02-08T22:45:20.135Z,72.43
2023-02-08T22:47:55.018Z,63.58
2023-02-08T22:50:28.587Z,66.32
2023-02-08T22:53:03.238Z,82.18
2023-02-08T22:55:45.049Z,81.20
2023-02-08T23:00:52.059Z,77.63
2023-02-08T23:03:27.162Z,75.90
2023-02-08T23:06:00.696Z,58.80
2023-02-08T23:08:34.430Z,61.95
2023-02-08T23:11:08.201Z,54.47
2023-02-08T23:13:42.137Z,55.92
2023-02-08T23:16:17.079Z,84.18
2023-02-08T23:18:52.066Z,81.28
2023-02-08T23:21:25.714Z,75.15
2023-02-08T23:23:59.295Z,72.03
2023-02-08T23:26:32.907Z,74.60
2023-02-08T23:29:06.949Z,70.18
2023-02-08T23:31:41.672Z,75.95
2023-02-08T23:34:16.864Z,57.47
2023-02-08T23:36:50.443Z,56.25
2023-02-08T23:39:23.997Z,56.80
2023-02-08T23:41:57.762Z,61.92
2023-02-08T23:44:31.249Z,71.45
2023-02-08T23:47:04.903Z,63.80
2023-02-08T23:49:39.915Z,62.85
2023-02-08T23:52:13.638Z,68.25
2023-02-08T23:54:47.191Z,64.38
2023-02-08T23:57:20.750Z,64.47
2023-02-08T23:59:54.278Z,74.57
